Time;durP1;ratioP1;P1;durP2;ratioP2;P2;SDS_P1;SDS_P2;PMS_P1;PMS_P2;Temp;Humidity;BMP_temperature;BMP_pressure;BME280_temperature;BME280_humidity;BME280_pressure;Samples;Min_cycle;Max_cycle;Signal;HPM_P1;HPM_P2
2021/04/09 00:01:58;;;;;;;21.25;13.90;;;102.40;1971.20;;;;;;4823354;29;20038;-70
2021/04/09 00:04:24;;;;;;;23.67;14.18;;;102.50;1945.60;;;;;;4826199;29;20033;-70
2021/04/09 00:06:51;;;;;;;23.90;14.25;;;102.50;1920.00;;;;;;4840468;29;20034;-69
2021/04/09 00:09:17;;;;;;;27.85;14.57;;;102.50;1945.60;;;;;;4822117;29;20094;-70
2021/04/09 00:11:44;;;;;;;23.13;13.63;;;102.50;1945.60;;;;;;4839831;29;20029;-70
2021/04/09 00:14:11;;;;;;;23.60;14.05;;;102.50;1945.60;;;;;;4837971;29;20022;-70
2021/04/09 00:16:38;;;;;;;20.65;13.70;;;102.50;1920.00;;;;;;4840104;29;20087;-70
2021/04/09 00:19:12;;;;;;;24.27;14.70;;;102.60;1920.00;;;;;;4844606;29;20033;-70
2021/04/09 00:21:38;;;;;;;26.67;13.20;;;102.60;1920.00;;;;;;4824366;29;20472;-70
2021/04/09 00:24:04;;;;;;;24.45;14.10;;;102.70;1920.00;;;;;;4840307;29;20086;-70
2021/04/09 00:26:30;;;;;;;20.88;13.90;;;102.60;1920.00;;;;;;4823592;29;20512;-70
2021/04/09 00:28:56;;;;;;;27.05;15.57;;;102.60;1894.40;;;;;;4840340;29;20042;-70
2021/04/09 00:31:21;;;;;;;26.38;16.00;;;102.40;1945.60;;;;;;4840637;29;20040;-70
2021/04/09 00:33:47;;;;;;;25.80;15.20;;;102.40;1971.20;;;;;;4840257;29;20026;-70
2021/04/09 00:36:13;;;;;;;21.23;14.90;;;102.40;1971.20;;;;;;4827530;29;20140;-70
2021/04/09 00:38:39;;;;;;;22.13;13.70;;;102.40;1945.60;;;;;;4841660;29;20030;-69
2021/04/09 00:41:05;;;;;;;24.05;14.55;;;102.50;1945.60;;;;;;4839946;29;20029;-69
2021/04/09 00:43:31;;;;;;;22.70;14.25;;;102.40;1945.60;;;;;;4840216;29;20030;-69
2021/04/09 00:45:57;;;;;;;21.75;13.07;;;102.50;1945.60;;;;;;4839929;29;20030;-70
2021/04/09 00:48:22;;;;;;;22.42;13.80;;;102.50;1920.00;;;;;;4823968;29;20026;-70
2021/04/09 00:50:48;;;;;;;26.05;15.38;;;102.50;1920.00;;;;;;4839900;29;20420;-70
2021/04/09 00:53:15;;;;;;;24.45;14.82;;;102.50;1920.00;;;;;;4839980;29;20026;-70
2021/04/09 00:55:43;;;;;;;24.08;17.23;;;102.40;1945.60;;;;;;4839919;29;20507;-70
2021/04/09 00:58:09;;;;;;;23.60;15.13;;;77.60;1971.20;;;;;;4823807;29;20049;-70
2021/04/09 01:00:35;;;;;;;26.90;14.90;;;77.60;1971.20;;;;;;4848302;29;20105;-70
2021/04/09 01:03:01;;;;;;;20.70;14.80;;;77.60;1971.20;;;;;;4843968;29;20033;-70
2021/04/09 01:05:27;;;;;;;23.63;12.43;;;77.70;1971.20;;;;;;4839828;29;20041;-70
2021/04/09 01:07:53;;;;;;;21.85;14.55;;;77.70;1945.60;;;;;;4824145;29;20120;-70
2021/04/09 01:10:20;;;;;;;22.38;13.38;;;102.40;1945.60;;;;;;4838917;29;20392;-69
2021/04/09 01:12:48;;;;;;;21.77;13.60;;;77.70;1945.60;;;;;;4822004;29;20025;-70
2021/04/09 01:15:16;;;;;;;20.00;12.70;;;102.40;1945.60;;;;;;4839866;29;20022;-69
2021/04/09 01:18:13;;;;;;;19.15;12.32;;;102.50;1920.00;;;;;;4839705;29;20033;-70
2021/04/09 01:20:53;;;;;;;18.47;12.33;;;102.50;1920.00;;;;;;4812046;29;20057;-70
2021/04/09 01:23:24;;;;;;;17.15;11.45;;;102.50;1894.40;;;;;;4837594;29;20053;-70
2021/04/09 01:26:05;;;;;;;19.20;12.45;;;102.50;1894.40;;;;;;4824580;29;20030;-70
2021/04/09 01:29:00;;;;;;;16.55;12.35;;;102.50;1894.40;;;;;;4843138;29;20114;-70
2021/04/09 01:31:44;;;;;;;21.10;12.77;;;102.50;1894.40;;;;;;4751269;30;20042;-70
2021/04/09 01:34:10;;;;;;;18.13;13.73;;;102.50;1894.40;;;;;;4750713;30;20029;-69
2021/04/09 01:36:44;;;;;;;24.15;15.02;;;102.50;1894.40;;;;;;4750977;30;20042;-70
2021/04/09 01:39:24;;;;;;;20.35;14.02;;;102.60;1894.40;;;;;;4753503;30;20032;-70
2021/04/09 01:41:52;;;;;;;23.48;14.68;;;102.50;1920.00;;;;;;4749789;30;20127;-70
2021/04/09 01:44:22;;;;;;;27.92;15.77;;;102.50;1894.40;;;;;;4750913;30;20051;-69
2021/04/09 01:46:52;;;;;;;21.55;14.30;;;102.50;1894.40;;;;;;4754001;30;20042;-69
2021/04/09 01:49:19;;;;;;;21.95;14.48;;;102.40;1920.00;;;;;;4750698;30;20080;-70
2021/04/09 01:51:47;;;;;;;34.60;18.20;;;102.40;1920.00;;;;;;4751094;30;20085;-69
2021/04/09 01:54:14;;;;;;;29.88;17.85;;;77.70;1920.00;;;;;;4750232;30;20024;-70
2021/04/09 01:56:42;;;;;;;27.13;18.25;;;77.70;1945.60;;;;;;4754490;30;20052;-69
2021/04/09 01:59:08;;;;;;;24.98;14.50;;;77.70;1945.60;;;;;;4750388;30;20080;-69
2021/04/09 02:01:36;;;;;;;26.90;13.65;;;77.50;1945.60;;;;;;4749456;29;20507;-70
2021/04/09 02:04:03;;;;;;;23.35;14.20;;;77.50;1971.20;;;;;;4750363;30;20039;-69
2021/04/09 02:06:30;;;;;;;30.27;16.10;;;77.50;1971.20;;;;;;4750304;30;20050;-69
2021/04/09 02:08:57;;;;;;;31.13;17.88;;;77.50;1971.20;;;;;;4808909;29;20078;-70
2021/04/09 02:11:23;;;;;;;25.65;17.15;;;77.50;1971.20;;;;;;4825570;29;20066;-69
2021/04/09 02:13:50;;;;;;;25.80;17.23;;;77.40;1971.20;;;;;;4843034;29;20073;-69
2021/04/09 02:16:17;;;;;;;22.58;14.98;;;77.40;1971.20;;;;;;4842084;29;20038;-69
2021/04/09 02:18:43;;;;;;;22.30;15.43;;;77.40;1971.20;;;;;;4820410;29;20057;-69
2021/04/09 02:21:10;;;;;;;35.70;17.45;;;77.30;1996.80;;;;;;4841987;29;20492;-69
2021/04/09 02:23:36;;;;;;;28.85;17.65;;;77.40;1996.80;;;;;;4842365;29;20547;-69
2021/04/09 02:26:03;;;;;;;30.13;16.52;;;77.50;1996.80;;;;;;4841725;29;20144;-69
2021/04/09 02:28:29;;;;;;;27.40;18.13;;;77.50;1971.20;;;;;;4842010;29;20050;-69
2021/04/09 02:31:03;;;;;;;34.55;20.05;;;77.50;1971.20;;;;;;4842122;29;20109;-69
2021/04/09 02:33:33;;;;;;;34.53;20.52;;;77.50;1996.80;;;;;;4825418;29;20056;-69
2021/04/09 02:36:06;;;;;;;44.65;23.83;;;77.40;1996.80;;;;;;4824644;29;20441;-68
2021/04/09 02:38:32;;;;;;;36.90;21.98;;;77.40;1996.80;;;;;;4841689;29;20026;-69
2021/04/09 02:41:01;;;;;;;32.03;20.38;;;77.40;1996.80;;;;;;4825009;29;20044;-69
2021/04/09 02:43:29;;;;;;;33.50;23.92;;;77.40;1971.20;;;;;;4842059;29;20034;-69
2021/04/09 02:45:55;;;;;;;34.58;21.55;;;77.30;1996.80;;;;;;4841731;29;20128;-69
2021/04/09 02:48:28;;;;;;;35.63;22.25;;;77.20;2022.40;;;;;;4841703;29;20026;-69
2021/04/09 02:50:55;;;;;;;33.28;22.75;;;77.20;1996.80;;;;;;4825103;29;20030;-69
2021/04/09 02:53:26;;;;;;;33.90;23.90;;;77.20;1996.80;;;;;;4841439;29;20101;-69
2021/04/09 02:55:53;;;;;;;34.15;22.02;;;77.30;1996.80;;;;;;4841176;29;20041;-69
2021/04/09 02:58:20;;;;;;;39.35;21.38;;;77.30;1996.80;;;;;;4836283;29;20090;-69
2021/04/09 03:00:48;;;;;;;38.22;21.70;;;77.10;2022.40;;;;;;4824498;29;20033;-69
2021/04/09 03:03:18;;;;;;;30.25;20.40;;;77.10;2022.40;;;;;;4840752;29;20029;-69
2021/04/09 03:05:45;;;;;;;31.95;21.17;;;77.00;2022.40;;;;;;4840645;29;20038;-70
2021/04/09 03:08:12;;;;;;;34.75;22.10;;;77.00;2048.00;;;;;;4840526;29;20530;-69
2021/04/09 03:10:39;;;;;;;34.10;21.58;;;77.00;2048.00;;;;;;4828358;29;20061;-69
2021/04/09 03:13:05;;;;;;;36.83;24.95;;;76.90;2048.00;;;;;;4842683;29;20014;-69
2021/04/09 03:15:54;;;;;;;43.22;27.38;;;76.90;2048.00;;;;;;4836922;29;20392;-69
2021/04/09 03:18:21;;;;;;;39.70;25.83;;;76.90;2048.00;;;;;;4839561;29;20034;-68
2021/04/09 03:20:47;;;;;;;44.00;27.40;;;76.90;2048.00;;;;;;4841068;29;20029;-69
2021/04/09 03:23:12;;;;;;;33.80;21.95;;;76.80;2048.00;;;;;;4824574;29;20117;-68
2021/04/09 03:25:38;;;;;;;37.30;24.50;;;76.80;2022.40;;;;;;4852766;29;20030;-68
2021/04/09 03:28:06;;;;;;;38.55;23.88;;;51.70;2124.80;;;;;;4840706;29;20110;-68
2021/04/09 03:30:31;;;;;;;38.50;25.67;;;51.60;2150.40;;;;;;4840353;29;20022;-68
2021/04/09 03:32:57;;;;;;;41.30;23.60;;;51.70;2150.40;;;;;;4840283;29;20033;-69
2021/04/09 03:35:23;;;;;;;44.88;22.10;;;51.70;2124.80;;;;;;4824571;29;20988;-68
2021/04/09 03:37:49;;;;;;;30.25;19.38;;;51.80;2124.80;;;;;;4838605;29;20025;-68
2021/04/09 03:40:17;;;;;;;34.42;20.02;;;51.80;2099.20;;;;;;4812853;29;20030;-69
2021/04/09 03:42:42;;;;;;;32.80;21.88;;;51.80;2099.20;;;;;;4821176;29;20029;-69
2021/04/09 03:45:09;;;;;;;32.25;19.27;;;51.80;2073.60;;;;;;4819002;29;20022;-69
2021/04/09 03:47:35;;;;;;;31.08;20.83;;;51.80;2099.20;;;;;;4822771;29;20037;-69
2021/04/09 03:50:01;;;;;;;31.13;19.30;;;51.80;2099.20;;;;;;4823640;29;20041;-69
2021/04/09 03:52:27;;;;;;;39.72;23.70;;;51.90;2073.60;;;;;;4823211;29;20034;-68
2021/04/09 03:54:53;;;;;;;38.33;22.58;;;51.90;2099.20;;;;;;4837394;29;20086;-69
2021/04/09 03:57:19;;;;;;;36.30;20.98;;;51.90;2099.20;;;;;;4826247;29;20069;-69
2021/04/09 03:59:45;;;;;;;37.17;23.33;;;51.90;2099.20;;;;;;4837537;29;20400;-69
2021/04/09 04:02:11;;;;;;;41.42;24.17;;;51.90;2099.20;;;;;;4837731;29;20037;-69
2021/04/09 04:04:36;;;;;;;38.33;23.23;;;51.80;2124.80;;;;;;4840094;29;20034;-69
2021/04/09 04:07:03;;;;;;;38.00;22.73;;;51.80;2124.80;;;;;;4839951;29;20376;-69
2021/04/09 04:09:29;;;;;;;33.42;22.98;;;51.80;2124.80;;;;;;4838632;29;20113;-69
2021/04/09 04:11:54;;;;;;;36.58;23.38;;;51.90;2124.80;;;;;;4835431;29;20037;-69
2021/04/09 04:14:20;;;;;;;33.72;20.92;;;51.90;2099.20;;;;;;4836292;29;20030;-68
2021/04/09 04:16:46;;;;;;;39.35;21.33;;;51.90;2099.20;;;;;;4837267;29;20030;-69
2021/04/09 04:19:13;;;;;;;46.60;20.85;;;51.90;2099.20;;;;;;4829675;29;20053;-69
2021/04/09 04:21:40;;;;;;;31.25;21.40;;;52.00;2073.60;;;;;;4838227;29;20026;-69
2021/04/09 04:24:06;;;;;;;40.05;25.90;;;52.00;2073.60;;;;;;4839572;29;20029;-69
2021/04/09 04:26:31;;;;;;;38.60;24.27;;;51.90;2073.60;;;;;;4820895;29;20072;-69
2021/04/09 04:28:57;;;;;;;41.90;26.65;;;51.80;2099.20;;;;;;4822636;29;20499;-69
2021/04/09 04:31:23;;;;;;;50.10;28.52;;;51.70;2124.80;;;;;;4820463;29;20298;-69
2021/04/09 04:33:48;;;;;;;44.55;28.10;;;51.70;2124.80;;;;;;4839435;29;20029;-69
2021/04/09 04:36:14;;;;;;;44.15;26.58;;;51.80;2124.80;;;;;;4839584;29;20029;-68
2021/04/09 04:38:40;;;;;;;43.85;27.27;;;51.80;2124.80;;;;;;4837305;29;20157;-69
2021/04/09 04:41:06;;;;;;;43.30;27.88;;;51.90;2124.80;;;;;;4832431;29;20408;-69
2021/04/09 04:43:32;;;;;;;50.47;29.63;;;51.90;2124.80;;;;;;4839397;29;20548;-69
2021/04/09 04:45:58;;;;;;;57.20;34.17;;;52.00;2124.80;;;;;;4832508;29;20032;-69
2021/04/09 04:48:23;;;;;;;57.13;34.35;;;52.10;2099.20;;;;;;4834412;29;20035;-69
2021/04/09 04:50:49;;;;;;;69.05;40.97;;;52.10;2099.20;;;;;;4836498;29;20030;-69
2021/04/09 04:53:15;;;;;;;62.63;35.70;;;76.80;2099.20;;;;;;4836752;29;20162;-69
2021/04/09 04:55:40;;;;;;;62.50;36.35;;;76.80;2099.20;;;;;;4820760;29;20045;-69
2021/04/09 04:58:06;;;;;;;65.95;35.97;;;76.90;2099.20;;;;;;4839638;29;20098;-69
2021/04/09 05:00:32;;;;;;;55.00;31.90;;;77.00;2099.20;;;;;;4823955;29;20045;-69
2021/04/09 05:02:58;;;;;;;55.83;30.95;;;77.00;2099.20;;;;;;4843220;29;20034;-69
2021/04/09 05:05:23;;;;;;;47.38;30.92;;;77.10;2099.20;;;;;;4846035;29;20034;-69
2021/04/09 05:07:49;;;;;;;47.85;31.75;;;77.10;2099.20;;;;;;4842982;29;20034;-69
2021/04/09 05:10:15;;;;;;;53.70;34.60;;;77.20;2099.20;;;;;;4843623;29;20026;-69
2021/04/09 05:12:41;;;;;;;63.13;36.67;;;77.20;2099.20;;;;;;4843029;29;20094;-69
2021/04/09 05:15:08;;;;;;;92.43;48.83;;;77.30;2099.20;;;;;;4843237;29;20028;-69
2021/04/09 05:17:37;;;;;;;103.53;53.50;;;77.40;2099.20;;;;;;4842936;29;20026;-69
2021/04/09 05:20:06;;;;;;;89.28;50.05;;;77.50;2099.20;;;;;;4843145;29;20059;-68
2021/04/09 05:22:32;;;;;;;79.68;47.38;;;77.60;2073.60;;;;;;4840813;29;20041;-69
2021/04/09 05:24:58;;;;;;;81.13;51.28;;;77.70;2099.20;;;;;;4842976;29;20034;-69
2021/04/09 05:27:23;;;;;;;86.57;46.97;;;102.40;2099.20;;;;;;4843224;29;20392;-69
2021/04/09 05:29:49;;;;;;;80.22;47.50;;;102.50;2099.20;;;;;;4842886;29;20040;-69
2021/04/09 05:32:15;;;;;;;72.50;42.17;;;102.50;2099.20;;;;;;4825359;29;20043;-69
2021/04/09 05:34:41;;;;;;;70.07;39.63;;;102.70;2099.20;;;;;;4842748;29;20051;-69
2021/04/09 05:37:08;;;;;;;58.50;36.83;;;102.80;2099.20;;;;;;4821340;29;20026;-69
2021/04/09 05:39:38;;;;;;;47.78;32.83;;;102.90;2099.20;;;;;;4826035;29;20449;-69
2021/04/09 05:42:05;;;;;;;56.15;31.15;;;103.00;2073.60;;;;;;4834459;29;20512;-70
2021/04/09 05:44:34;;;;;;;45.60;27.85;;;103.10;2048.00;;;;;;4842028;29;20117;-69
2021/04/09 05:47:04;;;;;;;48.47;29.85;;;103.20;2048.00;;;;;;4826043;29;20030;-69
2021/04/09 05:49:31;;;;;;;41.72;26.30;;;103.30;2022.40;;;;;;4836660;29;20034;-70
2021/04/09 05:51:57;;;;;;;43.25;26.17;;;128.10;2022.40;;;;;;4841134;29;20101;-69
2021/04/09 05:54:23;;;;;;;47.90;28.85;;;128.20;1971.20;;;;;;4842598;29;20109;-69
2021/04/09 05:56:49;;;;;;;50.28;28.38;;;128.40;1971.20;;;;;;4840518;29;20376;-70
2021/04/09 05:59:14;;;;;;;43.75;28.58;;;128.60;1945.60;;;;;;4840888;29;20038;-70
2021/04/09 06:01:40;;;;;;;52.35;28.90;;;128.80;1945.60;;;;;;4824969;29;20090;-70
2021/04/09 06:04:07;;;;;;;45.17;25.83;;;128.90;1920.00;;;;;;4836765;29;20038;-70
2021/04/09 06:06:32;;;;;;;41.20;27.38;;;153.70;1894.40;;;;;;4841795;29;20030;-70
2021/04/09 06:08:58;;;;;;;41.83;26.88;;;154.00;1868.80;;;;;;4841786;29;20030;-70
2021/04/09 06:11:24;;;;;;;32.10;24.45;;;154.30;1843.20;;;;;;4841061;29;20531;-70
2021/04/09 06:13:52;;;;;;;44.85;23.45;;;179.20;1792.00;;;;;;4840627;29;20034;-71
2021/04/09 06:16:18;;;;;;;32.90;23.67;;;179.30;1766.40;;;;;;4839399;29;20094;-71
2021/04/09 06:18:44;;;;;;;37.03;24.02;;;179.70;1740.80;;;;;;4842452;29;20091;-71
2021/04/09 06:21:09;;;;;;;26.48;18.67;;;179.80;1740.80;;;;;;4848197;29;20033;-71
2021/04/09 06:23:35;;;;;;;29.05;16.75;;;204.80;1689.60;;;;;;4840883;29;20100;-71
2021/04/09 06:26:01;;;;;;;19.08;13.00;;;205.00;1638.40;;;;;;4825335;29;20453;-71
2021/04/09 06:28:26;;;;;;;13.88;10.57;;;205.20;1612.80;;;;;;4822829;29;20042;-70
2021/04/09 06:30:52;;;;;;;22.08;12.50;;;205.50;1587.20;;;;;;4840296;29;20116;-71
2021/04/09 06:33:18;;;;;;;27.63;14.45;;;230.40;1561.60;;;;;;4824507;29;20059;-71
2021/04/09 06:35:44;;;;;;;35.35;15.80;;;230.40;1561.60;;;;;;4821322;29;20098;-71
2021/04/09 06:38:09;;;;;;;28.92;13.48;;;230.70;1536.00;;;;;;4839750;29;20059;-72
2021/04/09 06:40:35;;;;;;;18.33;11.32;;;230.80;1510.40;;;;;;4839054;29;20022;-71
2021/04/09 06:43:01;;;;;;;15.77;10.20;;;230.90;1510.40;;;;;;4841122;29;20365;-71
2021/04/09 06:45:28;;;;;;;13.68;11.07;;;231.20;1484.80;;;;;;4841470;29;20041;-71
2021/04/09 06:47:54;;;;;;;15.27;9.00;;;231.30;1433.60;;;;;;4839404;29;20071;-71
2021/04/09 06:50:21;;;;;;;14.93;10.30;;;256.10;1433.60;;;;;;4838596;29;20026;-70
2021/04/09 06:52:47;;;;;;;15.48;8.43;;;256.10;1459.20;;;;;;4822548;29;20037;-70
2021/04/09 06:55:18;;;;;;;14.90;8.55;;;256.30;1408.00;;;;;;4818652;29;20022;-70
2021/04/09 06:57:45;;;;;;;16.80;10.13;;;256.70;1382.40;;;;;;4839840;29;20029;-70
2021/04/09 07:00:12;;;;;;;17.00;9.70;;;256.80;1382.40;;;;;;4837506;29;20037;-70
2021/04/09 07:02:42;;;;;;;15.07;11.18;;;281.80;1382.40;;;;;;4834521;29;20117;-71
2021/04/09 07:05:08;;;;;;;10.95;7.97;;;281.90;1356.80;;;;;;4822901;29;20050;-70
2021/04/09 07:07:34;;;;;;;13.07;9.25;;;256.80;1382.40;;;;;;4837853;29;20042;-71
2021/04/09 07:09:59;;;;;;;12.77;8.45;;;256.80;1382.40;;;;;;4836530;29;20105;-70
2021/04/09 07:12:30;;;;;;;12.35;8.80;;;281.70;1356.80;;;;;;4837774;29;20769;-70
2021/04/09 07:15:03;;;;;;;12.07;8.32;;;282.00;1331.20;;;;;;4838354;29;20045;-70
2021/04/09 07:17:45;;;;;;;12.63;9.27;;;281.80;1356.80;;;;;;4823050;29;20050;-69
2021/04/09 07:20:18;;;;;;;15.20;9.02;;;256.70;1382.40;;;;;;4838677;29;20030;-68
2021/04/09 07:22:49;;;;;;;15.13;11.68;;;281.80;1356.80;;;;;;4820969;29;20110;-69
2021/04/09 07:25:17;;;;;;;15.68;10.18;;;282.00;1356.80;;;;;;4826252;29;20045;-69
2021/04/09 07:27:45;;;;;;;14.88;9.10;;;282.20;1331.20;;;;;;4837975;29;20415;-69
2021/04/09 07:30:19;;;;;;;10.40;7.88;;;282.40;1305.60;;;;;;4837170;29;20033;-69
2021/04/09 07:32:45;;;;;;;16.05;10.75;;;307.30;1305.60;;;;;;4821579;29;20030;-69
2021/04/09 07:35:14;;;;;;;23.27;14.68;;;307.50;1305.60;;;;;;4821602;29;20021;-69
2021/04/09 07:37:59;;;;;;;19.20;12.52;;;307.80;1280.00;;;;;;4838206;29;21681;-69
2021/04/09 07:40:30;;;;;;;17.60;11.80;;;307.90;1280.00;;;;;;4838190;29;20049;-69
2021/04/09 07:43:01;;;;;;;17.95;10.77;;;332.80;1280.00;;;;;;4837389;29;20038;-69
2021/04/09 07:45:30;;;;;;;17.77;11.55;;;332.90;1228.80;;;;;;4837981;29;20084;-70
2021/04/09 07:48:04;;;;;;;15.23;10.20;;;333.20;1203.20;;;;;;4822598;29;20456;-70
2021/04/09 07:50:44;;;;;;;10.63;8.48;;;333.20;1203.20;;;;;;4830905;29;20041;-69
2021/04/09 07:53:16;;;;;;;13.32;9.55;;;333.30;1152.00;;;;;;4838093;29;20082;-70
2021/04/09 07:56:19;;;;;;;12.77;9.23;;;333.30;1152.00;;;;;;5096538;27;20771;-69
2021/04/09 07:58:45;;;;;;;13.55;8.60;;;333.40;1177.60;;;;;;5100004;28;20028;-69
2021/04/09 08:01:22;;;;;;;10.80;6.82;;;333.40;1177.60;;;;;;5103149;28;20024;-69
2021/04/09 08:03:48;;;;;;;11.32;6.15;;;333.60;1100.80;;;;;;5096393;28;20031;-69
2021/04/09 08:06:19;;;;;;;11.27;7.70;;;358.40;1100.80;;;;;;5102016;28;20024;-69
2021/04/09 08:08:48;;;;;;;10.68;7.20;;;358.50;1100.80;;;;;;5100121;28;20039;-69
2021/04/09 08:11:21;;;;;;;10.15;6.80;;;333.70;1100.80;;;;;;5092932;28;20518;-68
2021/04/09 08:14:25;;;;;;;7.75;6.63;;;358.40;1075.20;;;;;;5094269;28;20386;-70
2021/04/09 08:16:51;;;;;;;14.38;9.63;;;333.50;1075.20;;;;;;5053603;28;20037;-70
2021/04/09 08:19:22;;;;;;;10.10;7.65;;;358.80;1075.20;;;;;;5051322;28;20028;-70
2021/04/09 08:21:52;;;;;;;14.32;9.07;;;358.80;1024.00;;;;;;5055893;28;20566;-70
2021/04/09 08:24:31;;;;;;;13.23;8.27;;;359.10;1024.00;;;;;;5035104;28;20519;-70
2021/04/09 08:26:58;;;;;;;16.55;11.13;;;384.10;998.40;;;;;;5052923;28;20044;-70
2021/04/09 08:29:26;;;;;;;11.25;8.40;;;384.30;998.40;;;;;;5042020;28;20116;-70
2021/04/09 08:31:53;;;;;;;12.07;6.38;;;384.50;947.20;;;;;;5057597;28;20038;-69
2021/04/09 08:34:20;;;;;;;14.18;10.10;;;384.40;921.60;;;;;;5040676;28;20047;-70
2021/04/09 08:36:49;;;;;;;12.40;8.80;;;384.60;921.60;;;;;;5060181;28;20016;-70
2021/04/09 08:39:17;;;;;;;12.35;7.03;;;384.60;947.20;;;;;;5052253;28;20104;-70
2021/04/09 08:41:45;;;;;;;11.18;8.55;;;409.80;947.20;;;;;;5054853;28;20051;-70
2021/04/09 08:44:13;;;;;;;11.90;7.63;;;409.70;921.60;;;;;;5058045;28;20028;-70
2021/04/09 08:46:39;;;;;;;12.80;8.57;;;384.70;896.00;;;;;;5055416;28;20048;-70
2021/04/09 08:49:07;;;;;;;11.93;8.35;;;409.80;921.60;;;;;;5053463;28;20060;-70
2021/04/09 08:51:36;;;;;;;11.48;7.72;;;435.20;870.40;;;;;;5049454;28;20029;-70
2021/04/09 08:54:21;;;;;;;10.32;6.88;;;435.70;819.20;;;;;;5071375;28;20037;-70
2021/04/09 08:56:47;;;;;;;9.18;6.10;;;435.90;819.20;;;;;;5098319;28;20024;-70
2021/04/09 08:59:13;;;;;;;8.50;6.57;;;409.90;844.80;;;;;;5098359;28;20031;-70
2021/04/09 09:01:39;;;;;;;10.00;5.63;;;435.60;819.20;;;;;;5097110;28;20032;-70
2021/04/09 09:04:23;;;;;;;6.65;4.75;;;435.90;768.00;;;;;;5093805;28;20024;-70
2021/04/09 09:06:50;;;;;;;13.52;6.28;;;435.30;716.80;;;;;;5107221;28;20043;-70
2021/04/09 09:09:30;;;;;;;11.20;7.25;;;435.40;768.00;;;;;;5082010;28;20509;-70
2021/04/09 09:11:58;;;;;;;11.15;7.25;;;435.80;793.60;;;;;;5080191;28;20032;-70
2021/04/09 09:14:33;;;;;;;8.38;5.90;;;460.90;793.60;;;;;;5073403;28;20025;-70
2021/04/09 09:17:20;;;;;;;18.20;10.02;;;461.10;742.40;;;;;;5082253;28;20016;-70
2021/04/09 09:19:49;;;;;;;7.18;4.88;;;461.40;768.00;;;;;;5083607;28;20054;-69
2021/04/09 09:22:21;;;;;;;8.18;5.60;;;435.80;768.00;;;;;;5084246;28;20040;-69
2021/04/09 09:25:06;;;;;;;10.95;6.78;;;435.40;742.40;;;;;;5068781;28;20102;-68
2021/04/09 09:27:48;;;;;;;11.23;5.28;;;435.90;742.40;;;;;;5077662;28;20154;-68
2021/04/09 09:30:39;;;;;;;5.63;4.47;;;436.00;742.40;;;;;;5059406;28;20024;-70
2021/04/09 09:33:22;;;;;;;8.93;5.00;;;435.40;716.80;;;;;;5064806;28;20468;-68
2021/04/09 09:36:00;;;;;;;25.58;7.07;;;435.80;742.40;;;;;;5059262;28;20024;-68
2021/04/09 09:38:49;;;;;;;6.53;4.80;;;461.30;716.80;;;;;;5055989;28;20017;-69
2021/04/09 09:41:33;;;;;;;11.35;6.18;;;461.50;716.80;;;;;;5053975;28;20494;-69
2021/04/09 09:44:00;;;;;;;9.38;6.10;;;487.00;691.20;;;;;;5071208;28;20078;-69
2021/04/09 09:46:58;;;;;;;9.20;5.45;;;512.20;665.60;;;;;;5063509;28;20044;-70
2021/04/09 09:49:25;;;;;;;9.10;5.13;;;512.00;665.60;;;;;;5009395;28;20037;-69
2021/04/09 09:51:51;;;;;;;7.40;5.30;;;512.20;665.60;;;;;;5026052;28;20090;-69
2021/04/09 09:54:31;;;;;;;14.38;8.88;;;537.70;640.00;;;;;;5027437;28;20053;-69
2021/04/09 09:56:59;;;;;;;6.43;4.45;;;537.90;640.00;;;;;;5028549;28;20025;-69
2021/04/09 09:59:27;;;;;;;6.90;4.78;;;537.90;640.00;;;;;;5028067;28;20092;-70
2021/04/09 10:01:59;;;;;;;6.95;4.05;;;537.80;614.40;;;;;;5011129;28;20029;-69
2021/04/09 10:04:26;;;;;;;8.20;5.72;;;537.80;588.80;;;;;;5027936;28;20060;-69
2021/04/09 10:06:55;;;;;;;9.45;5.32;;;538.00;588.80;;;;;;5028549;28;20387;-69
2021/04/09 10:09:31;;;;;;;10.70;7.13;;;538.40;588.80;;;;;;5029622;28;20768;-70
2021/04/09 10:11:58;;;;;;;5.28;3.85;;;563.70;588.80;;;;;;5028631;28;20034;-70
2021/04/09 10:14:27;;;;;;;6.68;4.85;;;563.70;563.20;;;;;;5028262;28;20045;-70
2021/04/09 10:16:54;;;;;;;6.18;4.85;;;564.00;537.60;;;;;;5026242;28;20392;-70
2021/04/09 10:19:20;;;;;;;5.63;3.25;;;538.50;563.20;;;;;;5026671;28;20109;-70
2021/04/09 10:21:46;;;;;;;5.72;3.95;;;512.60;537.60;;;;;;5011623;28;20030;-69
2021/04/09 10:24:16;;;;;;;5.60;4.22;;;538.10;563.20;;;;;;5021949;28;20049;-69
2021/04/09 10:26:54;;;;;;;5.78;4.28;;;537.60;588.80;;;;;;5055882;28;20036;-69
2021/04/09 10:29:33;;;;;;;6.55;4.55;;;512.50;588.80;;;;;;5058941;28;20442;-70
2021/04/09 10:32:00;;;;;;;5.20;3.80;;;563.20;588.80;;;;;;5058185;28;20121;-70
2021/04/09 10:34:31;;;;;;;6.35;4.30;;;563.70;537.60;;;;;;5073590;28;20094;-70
2021/04/09 10:36:57;;;;;;;9.65;5.68;;;563.80;563.20;;;;;;5070702;28;20036;-70
2021/04/09 10:39:25;;;;;;;6.80;3.97;;;589.10;537.60;;;;;;5058105;28;20017;-70
2021/04/09 10:41:53;;;;;;;6.25;4.10;;;563.20;563.20;;;;;;5059052;28;20025;-70
2021/04/09 10:44:20;;;;;;;6.55;4.78;;;538.40;537.60;;;;;;5059719;28;20048;-70
2021/04/09 10:46:58;;;;;;;6.25;3.97;;;563.40;537.60;;;;;;5064564;28;20033;-70
2021/04/09 10:49:25;;;;;;;6.47;3.97;;;563.50;512.00;;;;;;5062573;28;20570;-70
2021/04/09 10:51:54;;;;;;;8.00;5.13;;;563.40;537.60;;;;;;5067908;28;20071;-70
2021/04/09 10:54:24;;;;;;;13.45;9.95;;;589.00;537.60;;;;;;5065812;28;20052;-72
2021/04/09 10:56:53;;;;;;;4.88;3.83;;;589.70;486.40;;;;;;5065753;28;20024;-70
2021/04/09 10:59:20;;;;;;;6.13;4.20;;;614.90;460.80;;;;;;5065008;28;20021;-70
2021/04/09 11:01:47;;;;;;;5.28;3.15;;;615.00;435.20;;;;;;5069843;28;20017;-70
2021/04/09 11:04:16;;;;;;;8.10;3.85;;;615.30;409.60;;;;;;5064232;28;20032;-71
2021/04/09 11:07:11;;;;;;;5.25;3.58;;;615.00;384.00;;;;;;5079984;28;20073;-71
2021/04/09 11:09:47;;;;;;;5.38;4.00;;;589.40;435.20;;;;;;5021704;28;20687;-71
2021/04/09 11:12:19;;;;;;;5.20;4.30;;;538.30;486.40;;;;;;5028153;28;20124;-70
2021/04/09 11:14:45;;;;;;;7.38;4.03;;;563.90;512.00;;;;;;5028056;28;20426;-70
2021/04/09 11:17:25;;;;;;;8.50;5.20;;;589.40;486.40;;;;;;5010361;28;20041;-70
2021/04/09 11:19:55;;;;;;;6.10;4.68;;;589.20;486.40;;;;;;5025309;28;20448;-71
2021/04/09 11:22:21;;;;;;;6.70;4.07;;;614.70;486.40;;;;;;5025901;28;20116;-70
2021/04/09 11:25:03;;;;;;;8.07;5.68;;;589.40;512.00;;;;;;5026011;28;20551;-70
2021/04/09 11:27:33;;;;;;;7.07;5.13;;;615.00;460.80;;;;;;5026904;28;20037;-70
2021/04/09 11:30:35;;;;;;;6.40;5.05;;;615.30;460.80;;;;;;5008924;28;20041;-71
2021/04/09 11:33:03;;;;;;;8.07;5.00;;;615.30;460.80;;;;;;4981886;28;20042;-70
2021/04/09 11:35:34;;;;;;;7.35;5.10;;;615.30;460.80;;;;;;4977767;28;20042;-73
2021/04/09 11:38:06;;;;;;;11.32;6.78;;;614.70;486.40;;;;;;4974721;28;20058;-70
2021/04/09 11:40:35;;;;;;;8.90;4.32;;;589.70;512.00;;;;;;4972731;28;20053;-71
2021/04/09 11:43:01;;;;;;;8.15;5.18;;;614.90;486.40;;;;;;4980169;28;20113;-70
2021/04/09 11:45:51;;;;;;;6.22;4.78;;;614.70;486.40;;;;;;4987099;28;20080;-70
2021/04/09 11:48:27;;;;;;;7.57;5.45;;;614.90;460.80;;;;;;5007473;28;20037;-70
2021/04/09 11:50:53;;;;;;;7.40;4.70;;;589.40;512.00;;;;;;5001822;28;20038;-70
2021/04/09 11:53:19;;;;;;;6.88;4.75;;;589.70;486.40;;;;;;4988004;28;20201;-70
2021/04/09 11:55:50;;;;;;;9.00;5.32;;;589.20;486.40;;;;;;4980542;28;20386;-69
2021/04/09 11:58:29;;;;;;;11.02;5.20;;;589.70;512.00;;;;;;5006889;28;20835;-70
2021/04/09 12:00:58;;;;;;;6.88;5.22;;;614.60;486.40;;;;;;5006970;28;20038;-70
2021/04/09 12:03:43;;;;;;;8.10;5.18;;;614.60;486.40;;;;;;4999159;28;20105;-69
2021/04/09 12:06:19;;;;;;;7.95;5.68;;;615.10;486.40;;;;;;5010522;28;20492;-70
2021/04/09 12:08:45;;;;;;;9.88;5.00;;;640.20;460.80;;;;;;5051457;28;20455;-69
2021/04/09 12:11:12;;;;;;;7.40;4.93;;;589.60;486.40;;;;;;5055450;28;20020;-70
2021/04/09 12:13:43;;;;;;;8.48;5.38;;;615.30;460.80;;;;;;5055286;28;20086;-69
2021/04/09 12:16:09;;;;;;;11.18;7.15;;;640.30;460.80;;;;;;5067153;28;20040;-69
2021/04/09 12:18:35;;;;;;;8.27;5.60;;;640.60;435.20;;;;;;5054603;28;20020;-70
2021/04/09 12:21:01;;;;;;;8.27;6.10;;;640.10;435.20;;;;;;5072740;28;20037;-70
2021/04/09 12:23:27;;;;;;;8.40;5.82;;;615.10;486.40;;;;;;5060462;28;20039;-70